TimeAKST,TemperatureF,Dew PointF,Humidity,Sea Level PressureIn,VisibilityMPH,Wind Direction,Wind SpeedMPH,Gust SpeedMPH,PrecipitationIn,Events,Conditions,WindDirDegrees,DateUTC
12:16 AM,42.8,37.4,81,29.55,10.0,South,5.8,-,N/A,,Overcast,180,2013-11-03 08:16:00
12:36 AM,42.8,35.6,76,29.55,10.0,Calm,Calm,-,N/A,,Overcast,0,2013-11-03 08:36:00
12:56 AM,41.0,35.6,81,29.55,10.0,NE,4.6,-,N/A,,Overcast,50,2013-11-03 08:56:00
1:16 AM,42.8,35.6,76,29.54,10.0,NE,3.5,-,N/A,,Overcast,40,2013-11-03 09:16:00
1:36 AM,41.0,35.6,81,29.55,10.0,SE,3.5,-,N/A,,Overcast,130,2013-11-03 09:36:00
1:56 AM,41.0,33.8,76,29.55,10.0,ESE,6.9,-,N/A,,Mostly Cloudy,120,2013-11-03 09:56:00
1:16 AM,39.2,33.8,81,29.55,10.0,ESE,4.6,-,N/A,,Partly Cloudy,110,2013-11-03 10:16:00
1:36 AM,39.2,33.8,81,29.54,10.0,SE,5.8,-,N/A,,Clear,140,2013-11-03 10:36:00
1:56 AM,37.4,30.2,75,29.54,10.0,SE,5.8,-,N/A,,Clear,140,2013-11-03 10:56:00
2:16 AM,37.4,30.2,75,29.53,10.0,ESE,5.8,-,N/A,,Clear,120,2013-11-03 11:16:00
3:36 AM,42.8,33.8,70,29.51,10.0,South,11.5,-,N/A,,Clear,170,2013-11-03 12:36:00
3:56 AM,42.8,33.8,70,29.51,10.0,SSE,10.4,-,N/A,,Clear,150,2013-11-03 12:56:00
4:16 AM,42.8,35.6,76,29.51,10.0,SSE,8.1,-,N/A,,Clear,150,2013-11-03 13:16:00
4:36 AM,42.8,33.8,70,29.50,10.0,ENE,8.1,-,N/A,,Clear,60,2013-11-03 13:36:00
4:56 AM,39.2,33.8,81,29.50,10.0,East,4.6,-,N/A,,Clear,80,2013-11-03 13:56:00
5:16 AM,37.4,30.2,75,29.49,10.0,ESE,5.8,-,N/A,,Clear,110,2013-11-03 14:16:00
5:36 AM,37.4,30.2,75,29.49,10.0,East,4.6,-,N/A,,Clear,100,2013-11-03 14:36:00
5:56 AM,37.4,30.2,75,29.48,10.0,ESE,4.6,-,N/A,,Clear,110,2013-11-03 14:56:00
6:16 AM,39.2,33.8,81,29.48,10.0,Calm,Calm,-,N/A,,Clear,0,2013-11-03 15:16:00
6:36 AM,41.0,35.6,81,29.47,10.0,NNE,4.6,-,N/A,,Clear,20,2013-11-03 15:36:00
6:56 AM,41.0,35.6,81,29.45,10.0,Calm,Calm,-,N/A,,Clear,0,2013-11-03 15:56:00
7:16 AM,41.0,35.6,81,29.45,10.0,NNW,6.9,-,N/A,,Clear,340,2013-11-03 16:16:00
7:36 AM,39.2,33.8,81,29.44,1.2,NNE,4.6,-,N/A,,Clear,30,2013-11-03 16:36:00
7:56 AM,37.4,32.0,81,29.43,0.8,ENE,3.5,-,N/A,,Overcast,70,2013-11-03 16:56:00
8:16 AM,37.4,32.0,81,29.43,10.0,Calm,Calm,-,N/A,,Overcast,0,2013-11-03 17:16:00
8:36 AM,37.4,32.0,81,29.43,10.0,Calm,Calm,-,N/A,,Scattered Clouds,0,2013-11-03 17:36:00
8:56 AM,37.4,30.2,75,29.43,10.0,Calm,Calm,-,N/A,,Partly Cloudy,0,2013-11-03 17:56:00
9:16 AM,39.2,33.8,81,29.43,10.0,NE,6.9,-,N/A,,Mostly Cloudy,40,2013-11-03 18:16:00
9:36 AM,42.8,35.6,76,29.44,10.0,SE,19.6,25.3,N/A,,Overcast,140,2013-11-03 18:36:00
9:56 AM,44.6,35.6,71,29.45,10.0,SE,17.3,24.2,N/A,,Overcast,140,2013-11-03 18:56:00
10:16 AM,44.6,35.6,71,29.45,10.0,SSE,17.3,27.6,N/A,,Overcast,150,2013-11-03 19:16:00
10:36 AM,44.6,35.6,71,29.45,10.0,SE,12.7,23.0,N/A,,Overcast,140,2013-11-03 19:36:00
10:56 AM,44.6,35.6,71,29.45,10.0,SE,17.3,-,N/A,,Scattered Clouds,130,2013-11-03 19:56:00
11:16 AM,44.6,35.6,71,29.46,10.0,SE,13.8,-,N/A,,Mostly Cloudy,140,2013-11-03 20:16:00
11:36 AM,44.6,35.6,71,29.45,10.0,SSE,16.1,-,N/A,,Overcast,150,2013-11-03 20:36:00
11:56 AM,44.6,35.6,71,29.45,10.0,SSE,18.4,-,N/A,,Overcast,150,2013-11-03 20:56:00
12:16 PM,44.6,35.6,71,29.44,10.0,SE,19.6,-,N/A,,Overcast,130,2013-11-03 21:16:00
12:36 PM,44.6,35.6,71,29.44,10.0,SE,16.1,-,N/A,,Overcast,130,2013-11-03 21:36:00
12:56 PM,44.6,35.6,71,29.44,10.0,SE,16.1,19.6,N/A,,Overcast,130,2013-11-03 21:56:00
1:16 PM,42.8,35.6,76,29.43,10.0,SE,13.8,-,0.01,,Overcast,130,2013-11-03 22:16:00
1:36 PM,42.8,35.6,76,29.42,10.0,SE,11.5,-,0.01,,Overcast,130,2013-11-03 22:36:00
1:56 PM,42.8,35.6,76,29.41,10.0,SE,13.8,-,0.01,,Overcast,130,2013-11-03 22:56:00
2:16 PM,42.8,33.8,70,29.40,10.0,SE,12.7,-,N/A,,Overcast,130,2013-11-03 23:16:00
2:36 PM,42.8,35.6,76,29.40,10.0,SE,15.0,-,N/A,,Overcast,140,2013-11-03 23:36:00
2:56 PM,42.8,35.6,76,29.39,10.0,SE,17.3,-,N/A,,Overcast,140,2013-11-03 23:56:00
3:16 PM,42.8,35.6,76,29.38,10.0,SE,12.7,-,N/A,,Overcast,140,2013-11-04 00:16:00
3:36 PM,42.8,35.6,76,29.37,10.0,SE,15.0,-,N/A,,Overcast,140,2013-11-04 00:36:00
3:56 PM,42.8,35.6,76,29.37,10.0,SE,13.8,19.6,N/A,,Overcast,140,2013-11-04 00:56:00
4:16 PM,42.8,33.8,70,29.36,10.0,SE,17.3,-,N/A,,Overcast,140,2013-11-04 01:16:00
4:36 PM,42.8,35.6,76,29.35,10.0,SE,18.4,-,N/A,,Overcast,140,2013-11-04 01:36:00
4:56 PM,42.8,33.8,70,29.35,10.0,SSE,19.6,24.2,N/A,,Overcast,150,2013-11-04 01:56:00
5:16 PM,42.8,33.8,70,29.34,10.0,SE,25.3,29.9,N/A,,Overcast,140,2013-11-04 02:16:00
5:36 PM,41.0,33.8,76,29.34,10.0,SSE,20.7,-,N/A,,Scattered Clouds,150,2013-11-04 02:36:00
5:56 PM,41.0,33.8,76,29.35,10.0,SE,18.4,33.4,N/A,,Clear,140,2013-11-04 02:56:00
6:16 PM,41.0,33.8,76,29.34,10.0,SE,20.7,27.6,N/A,,Scattered Clouds,140,2013-11-04 03:16:00
6:36 PM,41.0,33.8,76,29.34,10.0,SSE,18.4,25.3,N/A,,Mostly Cloudy,150,2013-11-04 03:36:00
6:56 PM,41.0,33.8,76,29.34,10.0,SSE,18.4,25.3,N/A,,Mostly Cloudy,150,2013-11-04 03:56:00
7:16 PM,42.8,33.8,70,29.34,10.0,SE,17.3,23.0,N/A,,Overcast,140,2013-11-04 04:16:00
7:36 PM,42.8,33.8,70,29.34,10.0,SE,16.1,-,N/A,,Overcast,140,2013-11-04 04:36:00
7:56 PM,41.0,33.8,76,29.34,10.0,SSE,16.1,-,N/A,,Mostly Cloudy,150,2013-11-04 04:56:00
8:16 PM,42.8,33.8,70,29.33,10.0,SE,18.4,-,N/A,,Mostly Cloudy,140,2013-11-04 05:16:00
8:36 PM,42.8,33.8,70,29.33,10.0,SSE,19.6,-,N/A,,Overcast,150,2013-11-04 05:36:00
8:56 PM,42.8,33.8,70,29.33,10.0,SE,17.3,-,N/A,,Mostly Cloudy,140,2013-11-04 05:56:00
9:16 PM,41.0,33.8,76,29.33,10.0,SE,17.3,20.7,N/A,,Partly Cloudy,140,2013-11-04 06:16:00
9:36 PM,42.8,33.8,70,29.32,10.0,SSE,16.1,-,N/A,,Clear,150,2013-11-04 06:36:00
9:56 PM,41.0,33.8,76,29.32,10.0,SSE,15.0,-,N/A,,Clear,150,2013-11-04 06:56:00
10:16 PM,41.0,33.8,76,29.32,10.0,SSE,13.8,-,N/A,,Clear,150,2013-11-04 07:16:00
10:36 PM,42.8,33.8,70,29.32,10.0,SE,12.7,-,N/A,,Clear,140,2013-11-04 07:36:00
10:56 PM,41.0,33.8,76,29.31,10.0,SSE,12.7,-,N/A,,Clear,150,2013-11-04 07:56:00